Time;durP1;ratioP1;P1;durP2;ratioP2;P2;SDS_P1;SDS_P2;PMS_P1;PMS_P2;Temp;Humidity;BMP_temperature;BMP_pressure;BME280_temperature;BME280_humidity;BME280_pressure;Samples;Min_cycle;Max_cycle;Signal;HPM_P1;HPM_P2
2023/08/08 02:00:47;;;;;;;7.20;1.73;;;;;;;;;;4880031;27;20258;-80
2023/08/08 02:03:14;;;;;;;2.85;1.30;;;;;;;;;;4327059;33;20074;-79
2023/08/08 02:05:40;;;;;;;10.77;1.50;;;;;;;;;;4326370;33;20040;-82
2023/08/08 02:08:07;;;;;;;3.53;1.42;;;;;;;;;;4325387;33;20070;-81
2023/08/08 02:10:35;;;;;;;3.78;1.62;;;;;;;;;;4326672;33;20483;-81
2023/08/08 02:13:02;;;;;;;3.42;1.52;;;;;;;;;;4326482;33;20053;-83
2023/08/08 02:15:28;;;;;;;5.32;1.85;;;;;;;;;;4308959;33;20422;-82
2023/08/08 02:17:55;;;;;;;5.60;1.73;;;;;;;;;;4308939;33;20041;-80
2023/08/08 02:20:22;;;;;;;2.67;1.30;;;;;;;;;;4308282;33;20367;-82
2023/08/08 02:22:48;;;;;;;4.93;2.00;;;;;;;;;;4309448;33;20052;-80
2023/08/08 02:25:14;;;;;;;4.50;1.48;;;;;;;;;;4309944;33;20071;-81
2023/08/08 02:27:41;;;;;;;4.90;1.75;;;;;;;;;;4309267;33;20512;-81
2023/08/08 02:30:09;;;;;;;3.92;1.52;;;;;;;;;;4303935;33;20468;-84
2023/08/08 02:32:36;;;;;;;1.65;1.55;;;;;;;;;;4308739;33;20044;-80
2023/08/08 02:35:02;;;;;;;2.90;1.50;;;;;;;;;;4308586;33;20086;-81
2023/08/08 02:37:28;;;;;;;2.97;1.92;;;;;;;;;;4309259;33;20415;-80
2023/08/08 02:39:55;;;;;;;2.65;1.60;;;;;;;;;;4309475;33;20049;-80
2023/08/08 02:42:21;;;;;;;3.53;1.02;;;;;;;;;;4307558;33;20049;-82
2023/08/08 02:44:48;;;;;;;4.85;1.00;;;;;;;;;;4310608;33;20045;-80
2023/08/08 02:47:14;;;;;;;5.00;1.80;;;;;;;;;;4322828;33;20374;-81
2023/08/08 02:49:41;;;;;;;5.40;2.45;;;;;;;;;;4323406;33;20041;-81
2023/08/08 02:52:07;;;;;;;4.62;1.10;;;;;;;;;;4312773;33;20085;-86
2023/08/08 02:54:33;;;;;;;4.32;1.45;;;;;;;;;;4319461;33;20075;-80
2023/08/08 02:57:00;;;;;;;2.62;1.62;;;;;;;;;;4315432;33;20070;-81
2023/08/08 02:59:33;;;;;;;3.50;1.77;;;;;;;;;;4317723;33;20052;-81
2023/08/08 03:02:00;;;;;;;3.87;1.40;;;;;;;;;;4319492;33;20089;-85
2023/08/08 03:04:27;;;;;;;11.07;1.95;;;;;;;;;;4323498;33;20147;-80
2023/08/08 03:06:53;;;;;;;7.12;1.92;;;;;;;;;;4312496;33;20386;-80
2023/08/08 03:09:19;;;;;;;1.48;1.20;;;;;;;;;;4316571;33;20048;-81
2023/08/08 03:11:47;;;;;;;6.72;1.58;;;;;;;;;;4321489;33;20096;-81
2023/08/08 03:14:13;;;;;;;7.97;1.80;;;;;;;;;;4304704;33;20217;-85
2023/08/08 03:16:39;;;;;;;3.83;1.73;;;;;;;;;;4304590;33;20392;-83
2023/08/08 03:19:06;;;;;;;7.05;1.58;;;;;;;;;;4297252;33;20091;-81
2023/08/08 03:21:33;;;;;;;3.67;1.92;;;;;;;;;;4298487;33;20049;-80
2023/08/08 03:23:59;;;;;;;10.00;1.83;;;;;;;;;;4297223;33;20036;-82
2023/08/08 03:26:25;;;;;;;6.68;3.85;;;;;;;;;;4296576;33;20057;-80
2023/08/08 03:29:00;;;;;;;5.30;1.60;;;;;;;;;;4283659;33;20068;-81
2023/08/08 03:31:27;;;;;;;5.45;1.70;;;;;;;;;;4281110;33;20051;-81
2023/08/08 03:33:54;;;;;;;7.28;1.75;;;;;;;;;;4267396;33;20049;-81
2023/08/08 03:36:20;;;;;;;7.82;1.67;;;;;;;;;;4266576;33;20889;-87
2023/08/08 03:38:46;;;;;;;9.18;1.70;;;;;;;;;;4267375;33;20060;-80
2023/08/08 03:41:14;;;;;;;2.45;1.60;;;;;;;;;;4270253;33;20038;-80
2023/08/08 03:43:40;;;;;;;5.25;1.50;;;;;;;;;;4270376;33;20059;-80
2023/08/08 03:46:06;;;;;;;8.30;1.10;;;;;;;;;;4293960;33;20079;-81
2023/08/08 03:48:33;;;;;;;4.85;1.77;;;;;;;;;;4295751;33;20063;-84
2023/08/08 03:50:59;;;;;;;5.68;1.67;;;;;;;;;;4297633;33;20082;-81
2023/08/08 03:53:25;;;;;;;7.97;1.80;;;;;;;;;;4296982;33;20075;-80
2023/08/08 03:55:51;;;;;;;4.62;1.95;;;;;;;;;;4268675;33;20054;-78
2023/08/08 03:58:17;;;;;;;5.43;1.55;;;;;;;;;;4269401;33;20042;-81
2023/08/08 04:00:46;;;;;;;5.35;1.20;;;;;;;;;;4268147;33;20061;-85
2023/08/08 04:03:13;;;;;;;3.90;1.80;;;;;;;;;;4269771;33;20440;-81
2023/08/08 04:05:40;;;;;;;5.78;2.47;;;;;;;;;;4280159;33;20042;-80
2023/08/08 04:08:06;;;;;;;7.90;1.85;;;;;;;;;;4283889;33;20029;-80
2023/08/08 04:10:33;;;;;;;5.00;1.35;;;;;;;;;;4283758;33;20045;-81
2023/08/08 04:12:59;;;;;;;9.45;1.65;;;;;;;;;;4281573;33;20045;-81
2023/08/08 04:15:25;;;;;;;4.37;1.80;;;;;;;;;;4240784;33;20051;-81
2023/08/08 04:17:51;;;;;;;6.25;1.80;;;;;;;;;;4240053;33;20038;-81
2023/08/08 04:20:17;;;;;;;11.18;2.20;;;;;;;;;;4240701;33;20047;-81
2023/08/08 04:22:43;;;;;;;4.85;1.98;;;;;;;;;;4238923;33;20052;-85
2023/08/08 04:25:17;;;;;;;2.97;1.55;;;;;;;;;;4239596;33;20077;-80
2023/08/08 04:27:43;;;;;;;3.92;1.95;;;;;;;;;;4252060;33;20046;-81
2023/08/08 04:30:09;;;;;;;1.62;1.52;;;;;;;;;;4253413;33;20068;-80
2023/08/08 04:32:36;;;;;;;2.67;1.80;;;;;;;;;;4254096;33;20038;-87
2023/08/08 04:35:02;;;;;;;2.80;2.03;;;;;;;;;;4252366;33;20038;-81
2023/08/08 04:37:28;;;;;;;5.05;2.37;;;;;;;;;;4253555;33;20113;-81
2023/08/08 04:39:55;;;;;;;7.57;1.65;;;;;;;;;;4237873;33;20042;-81
2023/08/08 04:42:21;;;;;;;2.00;1.50;;;;;;;;;;4240781;33;20046;-81
2023/08/08 04:44:47;;;;;;;5.22;1.60;;;;;;;;;;4237943;33;20055;-84
2023/08/08 04:47:13;;;;;;;4.78;1.45;;;;;;;;;;4210042;34;20070;-81
2023/08/08 04:49:39;;;;;;;7.00;2.33;;;;;;;;;;4211642;34;20516;-82
2023/08/08 04:52:05;;;;;;;9.88;2.10;;;;;;;;;;4216682;33;20069;-81
2023/08/08 04:54:32;;;;;;;4.47;1.75;;;;;;;;;;4238400;33;20409;-81
2023/08/08 04:56:58;;;;;;;11.05;1.98;;;;;;;;;;4239326;33;20273;-83
2023/08/08 04:59:24;;;;;;;2.28;1.45;;;;;;;;;;4237019;33;20084;-83
2023/08/08 05:01:50;;;;;;;6.82;2.15;;;;;;;;;;4238053;33;20221;-83
2023/08/08 05:04:17;;;;;;;3.97;1.75;;;;;;;;;;4239572;33;20520;-82
2023/08/08 05:06:43;;;;;;;5.40;1.62;;;;;;;;;;4240086;33;20050;-81
2023/08/08 05:09:10;;;;;;;8.07;1.62;;;;;;;;;;4239044;33;20506;-86
2023/08/08 05:11:36;;;;;;;9.93;1.62;;;;;;;;;;4248813;33;20042;-81
2023/08/08 05:14:03;;;;;;;8.18;1.75;;;;;;;;;;4252264;33;20213;-82
2023/08/08 05:16:29;;;;;;;8.50;1.60;;;;;;;;;;4254092;33;20068;-82
2023/08/08 05:18:55;;;;;;;3.37;2.10;;;;;;;;;;4276076;33;20537;-81
2023/08/08 05:21:21;;;;;;;3.30;1.58;;;;;;;;;;4283017;33;20097;-80
2023/08/08 05:23:48;;;;;;;6.30;1.60;;;;;;;;;;4278596;33;20081;-80
2023/08/08 05:26:14;;;;;;;7.78;1.65;;;;;;;;;;4306689;33;20079;-82
2023/08/08 05:28:41;;;;;;;16.00;2.25;;;;;;;;;;4312742;33;20053;-80
2023/08/08 05:31:07;;;;;;;3.03;1.45;;;;;;;;;;4313573;33;20419;-80
2023/08/08 05:33:34;;;;;;;2.97;1.48;;;;;;;;;;4312705;33;20041;-82
2023/08/08 05:36:00;;;;;;;6.25;1.60;;;;;;;;;;4310762;33;20558;-82
2023/08/08 05:38:26;;;;;;;4.15;2.62;;;;;;;;;;4313364;33;20084;-82
2023/08/08 05:40:52;;;;;;;5.60;1.20;;;;;;;;;;4312574;33;20036;-82
2023/08/08 05:43:19;;;;;;;8.45;1.62;;;;;;;;;;4314244;33;20083;-81
2023/08/08 05:45:45;;;;;;;6.30;1.70;;;;;;;;;;4310034;33;20037;-86
2023/08/08 05:48:12;;;;;;;6.95;1.42;;;;;;;;;;4309500;33;20057;-83
2023/08/08 05:50:38;;;;;;;1.65;1.30;;;;;;;;;;4297636;33;20449;-84
2023/08/08 05:53:05;;;;;;;5.78;1.70;;;;;;;;;;4308678;33;20057;-83
2023/08/08 05:55:31;;;;;;;3.80;1.52;;;;;;;;;;4280938;33;20033;-81
2023/08/08 05:57:58;;;;;;;4.30;2.08;;;;;;;;;;4280626;33;20540;-82
2023/08/08 06:00:24;;;;;;;5.18;1.92;;;;;;;;;;4281882;33;20520;-81
2023/08/08 06:02:51;;;;;;;2.15;1.23;;;;;;;;;;4281008;33;20509;-82
2023/08/08 06:05:17;;;;;;;5.47;1.33;;;;;;;;;;4280356;33;20041;-82
2023/08/08 06:07:43;;;;;;;2.10;1.20;;;;;;;;;;4281182;33;20473;-83
2023/08/08 06:10:10;;;;;;;2.22;1.23;;;;;;;;;;4278830;33;20112;-82
2023/08/08 06:12:36;;;;;;;5.15;1.90;;;;;;;;;;4281796;33;20766;-81
2023/08/08 06:15:03;;;;;;;5.07;1.35;;;;;;;;;;4281712;33;20033;-79
2023/08/08 06:17:30;;;;;;;8.38;2.50;;;;;;;;;;4281508;33;20041;-80
2023/08/08 06:19:56;;;;;;;5.62;1.12;;;;;;;;;;4280806;33;20112;-79
2023/08/08 06:22:23;;;;;;;4.28;2.00;;;;;;;;;;4278045;33;20073;-85
2023/08/08 06:24:49;;;;;;;4.95;1.60;;;;;;;;;;4281145;33;20092;-81
2023/08/08 06:27:15;;;;;;;4.40;1.45;;;;;;;;;;4302458;33;20033;-80
2023/08/08 06:29:47;;;;;;;4.62;1.73;;;;;;;;;;4281091;33;20051;-80
2023/08/08 06:32:14;;;;;;;5.43;2.85;;;;;;;;;;4279773;33;20046;-84
2023/08/08 06:34:40;;;;;;;5.78;1.40;;;;;;;;;;4281355;33;20510;-81
2023/08/08 06:37:06;;;;;;;2.47;1.42;;;;;;;;;;4267148;33;20038;-80
2023/08/08 06:39:32;;;;;;;1.30;1.08;;;;;;;;;;4268280;33;20063;-80
2023/08/08 06:41:58;;;;;;;3.15;1.85;;;;;;;;;;4267274;33;20081;-80
2023/08/08 06:44:32;;;;;;;7.65;1.60;;;;;;;;;;4264786;33;20029;-81
2023/08/08 06:46:58;;;;;;;11.32;1.40;;;;;;;;;;4266149;33;20057;-81
2023/08/08 06:49:24;;;;;;;6.32;1.48;;;;;;;;;;4266902;33;20072;-81
2023/08/08 06:51:50;;;;;;;1.58;1.27;;;;;;;;;;4267196;33;20460;-80
2023/08/08 06:54:17;;;;;;;4.37;1.60;;;;;;;;;;4278323;33;20063;-87
2023/08/08 06:56:43;;;;;;;12.60;1.58;;;;;;;;;;4280708;33;20299;-82
2023/08/08 06:59:09;;;;;;;4.32;1.45;;;;;;;;;;4281382;33;20137;-81
2023/08/08 07:01:35;;;;;;;2.92;0.95;;;;;;;;;;4292747;33;20087;-81
2023/08/08 07:04:01;;;;;;;4.53;1.20;;;;;;;;;;4295339;33;20356;-81
2023/08/08 07:06:27;;;;;;;4.00;2.17;;;;;;;;;;4293594;33;20045;-86
2023/08/08 07:08:54;;;;;;;2.65;1.23;;;;;;;;;;4295095;33;20025;-82
2023/08/08 07:11:20;;;;;;;3.45;1.77;;;;;;;;;;4294602;33;20437;-82
2023/08/08 07:13:46;;;;;;;7.30;1.70;;;;;;;;;;4293656;33;20070;-81
2023/08/08 07:16:13;;;;;;;1.67;1.20;;;;;;;;;;4294467;33;20063;-83
2023/08/08 07:18:39;;;;;;;4.75;1.73;;;;;;;;;;4295179;33;20045;-85
2023/08/08 07:21:05;;;;;;;5.18;1.23;;;;;;;;;;4294721;33;20045;-82
2023/08/08 07:23:32;;;;;;;1.90;1.25;;;;;;;;;;4293921;33;20299;-81
2023/08/08 07:25:58;;;;;;;6.28;1.62;;;;;;;;;;4306208;33;20466;-82
2023/08/08 07:28:24;;;;;;;4.35;1.60;;;;;;;;;;4309304;33;20072;-82
2023/08/08 07:30:50;;;;;;;5.72;1.35;;;;;;;;;;4306842;33;20041;-83
2023/08/08 07:33:18;;;;;;;1.35;1.20;;;;;;;;;;4310036;33;20226;-81
2023/08/08 07:35:44;;;;;;;6.50;1.37;;;;;;;;;;4310103;33;20049;-81
2023/08/08 07:38:10;;;;;;;1.75;1.20;;;;;;;;;;4308818;33;20033;-81
2023/08/08 07:40:36;;;;;;;1.05;0.95;;;;;;;;;;4278507;33;20071;-82
2023/08/08 07:43:02;;;;;;;3.30;1.20;;;;;;;;;;4263278;33;20068;-82
2023/08/08 07:45:29;;;;;;;3.92;1.30;;;;;;;;;;4265738;33;20075;-81
2023/08/08 07:47:55;;;;;;;2.97;1.35;;;;;;;;;;4266337;33;20034;-83
2023/08/08 07:50:21;;;;;;;4.35;1.10;;;;;;;;;;4266843;33;20037;-81
2023/08/08 07:52:47;;;;;;;3.33;1.62;;;;;;;;;;4265098;33;20037;-86
2023/08/08 07:55:14;;;;;;;3.50;1.52;;;;;;;;;;4263785;33;20071;-82
2023/08/08 07:57:40;;;;;;;2.45;0.95;;;;;;;;;;4265852;33;20049;-81
2023/08/08 08:00:12;;;;;;;14.65;3.70;;;;;;;;;;4269300;33;20063;-81
2023/08/08 08:02:46;;;;;;;6.90;1.30;;;;;;;;;;4239414;33;20034;-81
2023/08/08 08:05:13;;;;;;;3.90;2.00;;;;;;;;;;4240057;33;20050;-82
2023/08/08 08:07:39;;;;;;;1.55;1.05;;;;;;;;;;4240257;33;20042;-83
2023/08/08 08:10:07;;;;;;;6.50;1.33;;;;;;;;;;4240875;33;20467;-81
2023/08/08 08:12:33;;;;;;;1.85;1.20;;;;;;;;;;4265019;33;20041;-82
2023/08/08 08:14:59;;;;;;;1.80;1.20;;;;;;;;;;4267066;33;20063;-85
2023/08/08 08:17:27;;;;;;;2.15;1.05;;;;;;;;;;4269042;33;20508;-83
2023/08/08 08:19:54;;;;;;;0.90;0.90;;;;;;;;;;4268885;33;20054;-83
2023/08/08 08:22:20;;;;;;;1.30;1.20;;;;;;;;;;4270217;33;20030;-82
2023/08/08 08:24:47;;;;;;;1.90;0.98;;;;;;;;;;4269030;33;20460;-83
2023/08/08 08:27:14;;;;;;;1.80;1.02;;;;;;;;;;4266418;33;20041;-82
2023/08/08 08:29:40;;;;;;;3.03;0.88;;;;;;;;;;4269874;33;20363;-82
2023/08/08 08:32:06;;;;;;;8.57;1.20;;;;;;;;;;4268707;33;20108;-82
2023/08/08 08:34:32;;;;;;;0.90;0.90;;;;;;;;;;4293151;33;20062;-80
2023/08/08 08:36:58;;;;;;;4.37;0.90;;;;;;;;;;4295835;33;20394;-84
2023/08/08 08:39:24;;;;;;;0.90;0.90;;;;;;;;;;4281672;33;20041;-81
2023/08/08 08:41:54;;;;;;;6.00;0.98;;;;;;;;;;4253408;33;20053;-81
2023/08/08 08:44:21;;;;;;;1.27;0.90;;;;;;;;;;4253204;33;20059;-80
2023/08/08 08:46:48;;;;;;;3.05;0.90;;;;;;;;;;4253515;33;20054;-82
2023/08/08 08:49:16;;;;;;;2.53;0.80;;;;;;;;;;4252275;33;20578;-84
2023/08/08 08:51:42;;;;;;;1.08;1.02;;;;;;;;;;4255217;33;20065;-81
2023/08/08 08:54:09;;;;;;;1.67;0.80;;;;;;;;;;4255089;33;20180;-82
2023/08/08 08:56:36;;;;;;;2.55;0.88;;;;;;;;;;4240090;33;20043;-81
2023/08/08 08:59:02;;;;;;;0.95;0.95;;;;;;;;;;4209395;34;20347;-85
2023/08/08 09:01:28;;;;;;;2.37;1.10;;;;;;;;;;4217703;34;20157;-83
2023/08/08 09:03:54;;;;;;;2.72;1.00;;;;;;;;;;4225085;34;20034;-82
2023/08/08 09:06:23;;;;;;;2.62;0.95;;;;;;;;;;4239823;33;20076;-83
2023/08/08 09:08:49;;;;;;;6.32;1.20;;;;;;;;;;4238397;33;20043;-82
2023/08/08 09:11:15;;;;;;;1.20;1.00;;;;;;;;;;4237071;33;20469;-83
2023/08/08 09:13:41;;;;;;;4.87;0.90;;;;;;;;;;4274318;33;20152;-82
2023/08/08 09:16:12;;;;;;;2.45;0.90;;;;;;;;;;4281049;33;20062;-83
2023/08/08 09:18:38;;;;;;;1.85;0.98;;;;;;;;;;4282951;33;20246;-84
2023/08/08 09:21:05;;;;;;;3.47;0.88;;;;;;;;;;4281626;33;20053;-85
2023/08/08 09:23:30;;;;;;;2.40;1.08;;;;;;;;;;4280884;33;20450;-83
2023/08/08 09:25:57;;;;;;;4.60;1.02;;;;;;;;;;4281069;33;20090;-83
2023/08/08 09:28:23;;;;;;;4.43;1.10;;;;;;;;;;4282669;33;20543;-82
2023/08/08 09:30:49;;;;;;;6.45;1.00;;;;;;;;;;4294070;33;20064;-85
2023/08/08 09:33:17;;;;;;;4.97;1.00;;;;;;;;;;4294173;33;20052;-88
2023/08/08 09:35:43;;;;;;;1.15;0.70;;;;;;;;;;4295545;33;20422;-82
2023/08/08 09:38:09;;;;;;;0.73;0.73;;;;;;;;;;4295317;33;20384;-83
2023/08/08 09:40:36;;;;;;;1.98;1.00;;;;;;;;;;4266530;33;20509;-83
2023/08/08 09:43:02;;;;;;;1.80;0.62;;;;;;;;;;4266543;33;20049;-83
2023/08/08 09:45:47;;;;;;;0.82;0.82;;;;;;;;;;4267196;33;20495;-82
2023/08/08 09:48:14;;;;;;;3.22;1.00;;;;;;;;;;4270267;33;20055;-82
2023/08/08 09:50:40;;;;;;;3.40;0.90;;;;;;;;;;4281881;33;20034;-84
2023/08/08 09:53:06;;;;;;;1.95;0.80;;;;;;;;;;4280616;33;20053;-82
2023/08/08 09:55:33;;;;;;;9.65;1.17;;;;;;;;;;4281579;33;20045;-82
2023/08/08 09:58:00;;;;;;;2.45;0.90;;;;;;;;;;4280803;33;20050;-83
2023/08/08 10:00:27;;;;;;;1.00;1.00;;;;;;;;;;4268057;33;20066;-83
2023/08/08 10:02:55;;;;;;;1.60;0.90;;;;;;;;;;4279347;33;20067;-84
2023/08/08 10:05:22;;;;;;;6.85;1.45;;;;;;;;;;4281167;33;20033;-82
2023/08/08 10:07:48;;;;;;;2.67;1.75;;;;;;;;;;4281825;33;20059;-84
2023/08/08 10:10:15;;;;;;;3.12;0.73;;;;;;;;;;4268065;33;20078;-81
2023/08/08 10:12:42;;;;;;;1.08;0.98;;;;;;;;;;4265478;33;20047;-81
2023/08/08 10:15:09;;;;;;;1.27;0.88;;;;;;;;;;4264171;33;20108;-83
2023/08/08 10:17:37;;;;;;;2.62;0.70;;;;;;;;;;4267486;33;20725;-83
2023/08/08 10:20:09;;;;;;;3.40;0.98;;;;;;;;;;4278717;33;20070;-82
2023/08/08 10:22:35;;;;;;;1.25;0.82;;;;;;;;;;4281832;33;20053;-82
2023/08/08 10:25:03;;;;;;;2.55;0.90;;;;;;;;;;4280830;33;20025;-87
2023/08/08 10:27:33;;;;;;;2.30;0.93;;;;;;;;;;4294799;33;20120;-82
2023/08/08 10:30:08;;;;;;;2.30;1.23;;;;;;;;;;4296020;33;20033;-82
2023/08/08 10:32:46;;;;;;;7.47;1.02;;;;;;;;;;4294341;33;20045;-86
2023/08/08 10:35:12;;;;;;;0.57;0.57;;;;;;;;;;4296229;33;20078;-82
2023/08/08 10:37:39;;;;;;;1.90;0.70;;;;;;;;;;4296394;33;20052;-83
2023/08/08 10:40:06;;;;;;;3.25;1.00;;;;;;;;;;4295246;33;20063;-82
2023/08/08 10:42:43;;;;;;;4.60;0.90;;;;;;;;;;4294824;33;20030;-86
2023/08/08 10:45:12;;;;;;;3.62;0.98;;;;;;;;;;4296328;33;20436;-82
2023/08/08 10:47:39;;;;;;;1.92;0.95;;;;;;;;;;4295175;33;20110;-83
2023/08/08 10:50:11;;;;;;;0.60;0.60;;;;;;;;;;4296157;33;20044;-83
2023/08/08 10:52:49;;;;;;;0.80;0.80;;;;;;;;;;4294655;33;20057;-82
2023/08/08 10:55:23;;;;;;;1.08;1.00;;;;;;;;;;4295034;33;20037;-83
2023/08/08 10:57:55;;;;;;;1.70;0.75;;;;;;;;;;4297095;33;20059;-82
2023/08/08 11:03:23;;;;;;;1.35;0.90;;;;;;;;;;4248529;33;19937;-84
2023/08/08 11:05:50;;;;;;;3.28;0.88;;;;;;;;;;4251289;33;20068;-82
2023/08/08 11:08:16;;;;;;;3.08;0.75;;;;;;;;;;4252016;33;20140;-80
2023/08/08 11:10:43;;;;;;;1.45;0.60;;;;;;;;;;4252522;33;20038;-82
2023/08/08 11:13:09;;;;;;;0.82;0.82;;;;;;;;;;4252796;33;20058;-79
2023/08/08 11:15:36;;;;;;;1.55;0.93;;;;;;;;;;4253961;33;20037;-80
2023/08/08 11:18:02;;;;;;;0.88;0.88;;;;;;;;;;4268790;33;20469;-81
2023/08/08 11:20:30;;;;;;;1.35;1.20;;;;;;;;;;4269286;33;20092;-81
2023/08/08 11:22:56;;;;;;;2.42;0.98;;;;;;;;;;4269094;33;20037;-80
2023/08/08 11:25:24;;;;;;;2.72;1.27;;;;;;;;;;4267846;33;20042;-85
2023/08/08 11:27:51;;;;;;;1.77;0.98;;;;;;;;;;4267002;33;20050;-81
2023/08/08 11:30:18;;;;;;;8.07;1.50;;;;;;;;;;4269671;33;20046;-80
2023/08/08 11:32:45;;;;;;;8.48;1.15;;;;;;;;;;4268740;33;20067;-81
2023/08/08 11:35:11;;;;;;;4.37;1.02;;;;;;;;;;4270957;33;20068;-82
2023/08/08 11:37:38;;;;;;;2.20;1.30;;;;;;;;;;4269194;33;20054;-82
2023/08/08 11:40:05;;;;;;;1.00;0.70;;;;;;;;;;4270710;33;20083;-82
2023/08/08 11:42:32;;;;;;;1.50;0.80;;;;;;;;;;4270856;33;20441;-82
2023/08/08 11:44:58;;;;;;;1.45;0.80;;;;;;;;;;4271102;33;20444;-82
2023/08/08 11:47:24;;;;;;;1.12;0.70;;;;;;;;;;4270491;33;20054;-84
2023/08/08 11:49:51;;;;;;;3.85;0.93;;;;;;;;;;4269855;33;20077;-82
2023/08/08 11:52:18;;;;;;;3.70;1.23;;;;;;;;;;4271603;33;20061;-81
2023/08/08 11:54:44;;;;;;;1.17;1.10;;;;;;;;;;4271711;33;20038;-81
2023/08/08 11:57:11;;;;;;;0.90;0.90;;;;;;;;;;4269881;33;20046;-81
2023/08/08 11:59:37;;;;;;;1.85;1.10;;;;;;;;;;4271588;33;20042;-80
2023/08/08 12:02:03;;;;;;;5.60;0.95;;;;;;;;;;4269666;33;20054;-80
2023/08/08 12:04:29;;;;;;;6.22;2.00;;;;;;;;;;4270306;33;20298;-80
2023/08/08 12:07:03;;;;;;;1.08;1.08;;;;;;;;;;4271881;33;20067;-81
2023/08/08 12:09:32;;;;;;;3.05;0.80;;;;;;;;;;4270887;33;20079;-81
2023/08/08 12:12:02;;;;;;;0.85;0.70;;;;;;;;;;4269968;33;20079;-81
2023/08/08 12:14:28;;;;;;;11.75;1.02;;;;;;;;;;4269310;33;20361;-82
2023/08/08 12:16:55;;;;;;;0.85;0.70;;;;;;;;;;4256695;33;20053;-82
2023/08/08 12:19:25;;;;;;;1.20;1.20;;;;;;;;;;4253928;33;20395;-81
2023/08/08 12:21:51;;;;;;;1.30;0.80;;;;;;;;;;4253427;33;20056;-81
2023/08/08 12:24:18;;;;;;;2.65;1.00;;;;;;;;;;4252205;33;20072;-86
2023/08/08 12:26:44;;;;;;;6.70;1.00;;;;;;;;;;4252674;33;20490;-82
2023/08/08 12:29:11;;;;;;;0.73;0.73;;;;;;;;;;4253387;33;20471;-82
2023/08/08 12:31:39;;;;;;;6.07;1.42;;;;;;;;;;4253063;33;20058;-83
2023/08/08 12:34:05;;;;;;;1.23;0.95;;;;;;;;;;4253297;33;20060;-82
2023/08/08 12:36:31;;;;;;;2.47;0.70;;;;;;;;;;4251569;33;20426;-83
2023/08/08 12:38:58;;;;;;;3.62;1.10;;;;;;;;;;4254195;33;20348;-83
2023/08/08 12:41:29;;;;;;;4.32;1.25;;;;;;;;;;4253379;33;20042;-84
2023/08/08 12:43:55;;;;;;;3.22;1.10;;;;;;;;;;4252923;33;20053;-82
2023/08/08 12:46:21;;;;;;;3.92;0.98;;;;;;;;;;4251479;33;20052;-84
2023/08/08 12:48:47;;;;;;;3.20;1.10;;;;;;;;;;4253605;33;20055;-83
2023/08/08 12:51:15;;;;;;;2.72;1.12;;;;;;;;;;4266124;33;20076;-80
2023/08/08 12:53:42;;;;;;;2.28;1.15;;;;;;;;;;4269126;33;20065;-80
2023/08/08 12:56:08;;;;;;;2.47;1.00;;;;;;;;;;4267309;33;20080;-82
2023/08/08 12:58:34;;;;;;;2.60;0.90;;;;;;;;;;4266876;33;20117;-80
2023/08/08 13:01:01;;;;;;;3.75;1.05;;;;;;;;;;4268255;33;20051;-80
2023/08/08 13:03:27;;;;;;;2.45;1.02;;;;;;;;;;4267587;33;20408;-82
2023/08/08 13:05:54;;;;;;;1.30;1.00;;;;;;;;;;4268681;33;20858;-80
2023/08/08 13:08:20;;;;;;;1.10;1.00;;;;;;;;;;4265838;33;20102;-86
2023/08/08 13:10:46;;;;;;;5.25;0.90;;;;;;;;;;4267659;33;20053;-81
2023/08/08 13:13:13;;;;;;;0.80;0.80;;;;;;;;;;4268681;33;20116;-80
2023/08/08 13:15:41;;;;;;;2.53;0.80;;;;;;;;;;4268413;33;20046;-81
2023/08/08 13:18:07;;;;;;;1.00;0.93;;;;;;;;;;4268291;33;20038;-82
2023/08/08 13:20:33;;;;;;;2.17;0.82;;;;;;;;;;4264390;33;20079;-81
2023/08/08 13:23:00;;;;;;;2.25;0.95;;;;;;;;;;4268466;33;20069;-81
2023/08/08 13:25:26;;;;;;;1.00;1.00;;;;;;;;;;4267766;33;20038;-82
2023/08/08 13:27:52;;;;;;;0.85;0.85;;;;;;;;;;4268835;33;20088;-81
2023/08/08 13:30:21;;;;;;;5.43;0.90;;;;;;;;;;4269881;33;20041;-81
2023/08/08 13:32:47;;;;;;;4.18;1.10;;;;;;;;;;4266869;33;20030;-82
2023/08/08 13:35:13;;;;;;;4.60;1.00;;;;;;;;;;4270021;33;20340;-82
2023/08/08 13:37:40;;;;;;;0.60;0.60;;;;;;;;;;4255223;33;20103;-81
2023/08/08 13:40:12;;;;;;;4.37;0.95;;;;;;;;;;4268605;33;20045;-82
2023/08/08 13:42:38;;;;;;;0.98;0.93;;;;;;;;;;4265994;33;20439;-83
2023/08/08 13:45:05;;;;;;;8.88;1.15;;;;;;;;;;4267178;33;20072;-83
2023/08/08 13:47:31;;;;;;;2.47;1.10;;;;;;;;;;4267624;33;20046;-82
2023/08/08 13:49:57;;;;;;;1.17;1.17;;;;;;;;;;4237695;33;20532;-82
2023/08/08 13:52:24;;;;;;;1.60;1.17;;;;;;;;;;4239354;33;20060;-81
2023/08/08 13:54:51;;;;;;;2.53;0.85;;;;;;;;;;4236942;33;20707;-83
2023/08/08 13:57:17;;;;;;;1.55;1.02;;;;;;;;;;4223633;34;20076;-82
2023/08/08 13:59:44;;;;;;;0.85;0.85;;;;;;;;;;4225957;34;20046;-82
2023/08/08 14:02:09;;;;;;;1.83;1.10;;;;;;;;;;4224346;34;20064;-81
2023/08/08 14:04:36;;;;;;;1.40;0.90;;;;;;;;;;4225430;34;20436;-81
2023/08/08 14:07:02;;;;;;;5.45;1.05;;;;;;;;;;4222965;34;20039;-86
2023/08/08 14:09:28;;;;;;;3.25;1.17;;;;;;;;;;4223776;34;20046;-82
2023/08/08 14:11:56;;;;;;;2.67;1.60;;;;;;;;;;4224322;34;20141;-82
2023/08/08 14:14:22;;;;;;;0.85;0.85;;;;;;;;;;4224758;34;20055;-81
2023/08/08 14:16:55;;;;;;;6.47;1.42;;;;;;;;;;4238941;33;20034;-82
2023/08/08 14:19:22;;;;;;;0.80;0.80;;;;;;;;;;4249696;33;20073;-82
2023/08/08 14:21:47;;;;;;;6.40;1.10;;;;;;;;;;4251819;33;20500;-83
2023/08/08 14:24:14;;;;;;;1.00;1.00;;;;;;;;;;4254225;33;20380;-83
2023/08/08 14:26:47;;;;;;;1.25;0.75;;;;;;;;;;4253448;33;20380;-85
2023/08/08 14:29:13;;;;;;;9.45;1.35;;;;;;;;;;4251996;33;20060;-87
2023/08/08 14:31:40;;;;;;;2.75;0.90;;;;;;;;;;4253690;33;20093;-83
2023/08/08 14:34:07;;;;;;;1.12;1.10;;;;;;;;;;4253008;33;20046;-85
2023/08/08 14:36:32;;;;;;;1.45;1.25;;;;;;;;;;4254322;33;20046;-83
2023/08/08 14:38:59;;;;;;;1.40;1.23;;;;;;;;;;4252579;33;20205;-90
2023/08/08 14:41:25;;;;;;;4.43;1.30;;;;;;;;;;4252026;33;20071;-85
2023/08/08 14:43:51;;;;;;;1.30;1.20;;;;;;;;;;4253300;33;20058;-82
2023/08/08 14:46:17;;;;;;;1.70;1.20;;;;;;;;;;4237667;33;20468;-85
2023/08/08 14:48:44;;;;;;;4.53;1.85;;;;;;;;;;4226342;33;20054;-85
2023/08/08 14:51:12;;;;;;;5.78;1.20;;;;;;;;;;4224663;34;20192;-85
2023/08/08 14:53:38;;;;;;;1.77;1.02;;;;;;;;;;4237429;33;20065;-85
2023/08/08 14:56:04;;;;;;;5.53;1.40;;;;;;;;;;4239544;33;20058;-85
2023/08/08 14:58:30;;;;;;;1.80;1.20;;;;;;;;;;4238847;33;20054;-84
2023/08/08 15:00:56;;;;;;;3.78;1.33;;;;;;;;;;4237868;33;20060;-84
2023/08/08 15:03:23;;;;;;;3.92;1.48;;;;;;;;;;4250648;33;20050;-84
2023/08/08 15:05:55;;;;;;;1.42;1.30;;;;;;;;;;4252873;33;20050;-84
2023/08/08 15:08:24;;;;;;;1.85;1.50;;;;;;;;;;4251453;33;20056;-82
2023/08/08 15:10:50;;;;;;;1.60;1.10;;;;;;;;;;4252505;33;20081;-83
2023/08/08 15:13:16;;;;;;;3.78;1.35;;;;;;;;;;4253045;33;20050;-82
2023/08/08 15:15:42;;;;;;;1.75;0.95;;;;;;;;;;4250973;33;20038;-84
2023/08/08 15:18:09;;;;;;;2.10;1.10;;;;;;;;;;4251885;33;20065;-81
2023/08/08 15:20:36;;;;;;;2.03;1.40;;;;;;;;;;4237708;33;20072;-82
2023/08/08 15:23:02;;;;;;;3.65;1.00;;;;;;;;;;4237666;33;20060;-81
2023/08/08 15:25:28;;;;;;;4.05;1.50;;;;;;;;;;4225042;33;20043;-81
2023/08/08 15:27:55;;;;;;;1.65;1.42;;;;;;;;;;4222339;33;20046;-81
2023/08/08 15:30:21;;;;;;;4.15;1.20;;;;;;;;;;4224456;33;20070;-81
2023/08/08 15:32:47;;;;;;;2.08;1.00;;;;;;;;;;4223979;33;20077;-82
2023/08/08 15:35:13;;;;;;;1.15;1.02;;;;;;;;;;4224641;34;20457;-81
2023/08/08 15:37:39;;;;;;;2.50;1.15;;;;;;;;;;4225547;33;20100;-80
2023/08/08 15:40:06;;;;;;;8.13;1.10;;;;;;;;;;4236832;33;20042;-80
2023/08/08 15:42:32;;;;;;;1.42;1.05;;;;;;;;;;4238600;33;20054;-82
2023/08/08 15:44:58;;;;;;;5.68;1.15;;;;;;;;;;4237805;33;20056;-80
2023/08/08 15:47:24;;;;;;;1.10;1.10;;;;;;;;;;4238823;33;20064;-80
2023/08/08 15:49:57;;;;;;;2.10;1.60;;;;;;;;;;4237159;33;20476;-81
2023/08/08 15:52:23;;;;;;;6.05;1.25;;;;;;;;;;4237628;33;20184;-80
2023/08/08 15:54:52;;;;;;;1.00;0.80;;;;;;;;;;4249177;33;20080;-82
2023/08/08 15:57:18;;;;;;;1.40;1.17;;;;;;;;;;4252649;33;20033;-79
2023/08/08 15:59:44;;;;;;;1.80;1.40;;;;;;;;;;4251242;33;20056;-80
2023/08/08 16:02:11;;;;;;;3.05;1.30;;;;;;;;;;4257753;33;20335;-81
2023/08/08 16:04:37;;;;;;;1.52;1.40;;;;;;;;;;4266673;33;20033;-81
2023/08/08 16:07:03;;;;;;;5.18;1.48;;;;;;;;;;4237996;33;20059;-83
2023/08/08 16:09:29;;;;;;;1.37;1.20;;;;;;;;;;4236916;33;20125;-81
2023/08/08 16:11:56;;;;;;;1.40;1.30;;;;;;;;;;4237080;33;20047;-84
2023/08/08 16:14:22;;;;;;;5.07;1.45;;;;;;;;;;4237477;33;20081;-82
2023/08/08 16:16:48;;;;;;;3.72;1.75;;;;;;;;;;4238381;33;20088;-83
2023/08/08 16:19:14;;;;;;;2.12;1.25;;;;;;;;;;4238125;33;20046;-83
2023/08/08 16:21:40;;;;;;;8.23;1.35;;;;;;;;;;4237494;33;20039;-83
2023/08/08 16:24:06;;;;;;;3.72;1.30;;;;;;;;;;4225426;34;20026;-85
2023/08/08 16:26:33;;;;;;;1.17;1.17;;;;;;;;;;4225843;34;20035;-82
2023/08/08 16:28:59;;;;;;;1.40;1.25;;;;;;;;;;4226839;34;20051;-84
2023/08/08 16:31:25;;;;;;;4.37;1.67;;;;;;;;;;4211632;34;20092;-84
2023/08/08 16:33:51;;;;;;;1.60;1.50;;;;;;;;;;4197826;34;20040;-83
2023/08/08 16:36:18;;;;;;;2.28;1.40;;;;;;;;;;4196574;34;20073;-86
2023/08/08 16:38:44;;;;;;;2.12;1.05;;;;;;;;;;4219191;34;20046;-82
2023/08/08 16:41:10;;;;;;;2.97;1.40;;;;;;;;;;4227137;34;20054;-82
2023/08/08 16:43:37;;;;;;;1.27;1.10;;;;;;;;;;4239719;33;20482;-83